sensor_id;sensor_type;location;lat;lon;timestamp;P1;durP1;ratioP1;P2;durP2;ratioP2
25854;SDS011;13680;49.936;11.344;2022-08-14T00:01:45;13.02;;;11.68;;
25854;SDS011;13680;49.936;11.344;2022-08-14T00:04:10;12.98;;;11.68;;
25854;SDS011;13680;49.936;11.344;2022-08-14T00:06:36;14.73;;;12.40;;
25854;SDS011;13680;49.936;11.344;2022-08-14T00:09:01;12.85;;;11.55;;
25854;SDS011;13680;49.936;11.344;2022-08-14T00:11:27;16.02;;;12.68;;
25854;SDS011;13680;49.936;11.344;2022-08-14T00:13:53;15.18;;;12.68;;
25854;SDS011;13680;49.936;11.344;2022-08-14T00:16:19;15.65;;;13.57;;
25854;SDS011;13680;49.936;11.344;2022-08-14T00:18:44;13.95;;;12.55;;
25854;SDS011;13680;49.936;11.344;2022-08-14T00:21:10;14.18;;;12.60;;
25854;SDS011;13680;49.936;11.344;2022-08-14T00:23:35;15.00;;;12.48;;
25854;SDS011;13680;49.936;11.344;2022-08-14T00:26:01;16.25;;;12.52;;
25854;SDS011;13680;49.936;11.344;2022-08-14T00:28:27;15.38;;;12.38;;
25854;SDS011;13680;49.936;11.344;2022-08-14T00:30:55;15.40;;;12.20;;
25854;SDS011;13680;49.936;11.344;2022-08-14T00:33:25;14.27;;;11.90;;
25854;SDS011;13680;49.936;11.344;2022-08-14T00:35:52;14.35;;;12.77;;
25854;SDS011;13680;49.936;11.344;2022-08-14T00:38:18;15.80;;;13.57;;
25854;SDS011;13680;49.936;11.344;2022-08-14T00:40:44;17.10;;;13.18;;
25854;SDS011;13680;49.936;11.344;2022-08-14T00:43:10;14.55;;;13.02;;
25854;SDS011;13680;49.936;11.344;2022-08-14T00:45:36;14.40;;;12.90;;
25854;SDS011;13680;49.936;11.344;2022-08-14T00:48:02;17.10;;;12.50;;
25854;SDS011;13680;49.936;11.344;2022-08-14T00:50:28;14.35;;;12.95;;
25854;SDS011;13680;49.936;11.344;2022-08-14T00:52:55;16.60;;;13.98;;
25854;SDS011;13680;49.936;11.344;2022-08-14T00:55:21;15.98;;;13.70;;
25854;SDS011;13680;49.936;11.344;2022-08-14T00:57:48;17.00;;;15.30;;
25854;SDS011;13680;49.936;11.344;2022-08-14T01:00:34;16.08;;;13.40;;
25854;SDS011;13680;49.936;11.344;2022-08-14T01:03:00;15.80;;;13.23;;
25854;SDS011;13680;49.936;11.344;2022-08-14T01:05:27;18.48;;;14.18;;
25854;SDS011;13680;49.936;11.344;2022-08-14T01:07:54;15.45;;;13.35;;
25854;SDS011;13680;49.936;11.344;2022-08-14T01:10:22;15.68;;;13.13;;
25854;SDS011;13680;49.936;11.344;2022-08-14T01:13:10;14.50;;;13.00;;
25854;SDS011;13680;49.936;11.344;2022-08-14T01:15:49;18.25;;;14.63;;
25854;SDS011;13680;49.936;11.344;2022-08-14T01:18:16;16.30;;;13.30;;
25854;SDS011;13680;49.936;11.344;2022-08-14T01:21:01;14.57;;;13.00;;
25854;SDS011;13680;49.936;11.344;2022-08-14T01:23:30;15.60;;;13.35;;
25854;SDS011;13680;49.936;11.344;2022-08-14T01:26:00;16.58;;;12.63;;
25854;SDS011;13680;49.936;11.344;2022-08-14T01:28:25;15.88;;;13.38;;
25854;SDS011;13680;49.936;11.344;2022-08-14T01:30:52;15.48;;;13.73;;
25854;SDS011;13680;49.936;11.344;2022-08-14T01:33:22;15.43;;;13.73;;
25854;SDS011;13680;49.936;11.344;2022-08-14T01:35:53;14.98;;;13.40;;
25854;SDS011;13680;49.936;11.344;2022-08-14T01:38:21;16.45;;;13.13;;
25854;SDS011;13680;49.936;11.344;2022-08-14T01:40:48;14.57;;;12.95;;
25854;SDS011;13680;49.936;11.344;2022-08-14T01:43:14;14.32;;;12.88;;
25854;SDS011;13680;49.936;11.344;2022-08-14T01:45:42;14.60;;;13.13;;
25854;SDS011;13680;49.936;11.344;2022-08-14T01:48:09;16.15;;;13.75;;
25854;SDS011;13680;49.936;11.344;2022-08-14T01:50:35;17.27;;;13.70;;
25854;SDS011;13680;49.936;11.344;2022-08-14T01:53:00;15.52;;;13.60;;
25854;SDS011;13680;49.936;11.344;2022-08-14T01:55:26;16.08;;;12.82;;
25854;SDS011;13680;49.936;11.344;2022-08-14T01:57:56;14.57;;;12.93;;
25854;SDS011;13680;49.936;11.344;2022-08-14T02:00:22;19.42;;;13.98;;
25854;SDS011;13680;49.936;11.344;2022-08-14T02:02:48;16.60;;;14.65;;
25854;SDS011;13680;49.936;11.344;2022-08-14T02:05:14;18.85;;;14.23;;
25854;SDS011;13680;49.936;11.344;2022-08-14T02:07:41;17.23;;;13.98;;
25854;SDS011;13680;49.936;11.344;2022-08-14T02:10:10;15.85;;;13.15;;
25854;SDS011;13680;49.936;11.344;2022-08-14T02:12:36;15.57;;;12.93;;
25854;SDS011;13680;49.936;11.344;2022-08-14T02:15:05;15.02;;;13.23;;
25854;SDS011;13680;49.936;11.344;2022-08-14T02:17:33;17.58;;;13.50;;
25854;SDS011;13680;49.936;11.344;2022-08-14T02:19:59;15.15;;;13.55;;
25854;SDS011;13680;49.936;11.344;2022-08-14T02:22:24;14.48;;;12.80;;
25854;SDS011;13680;49.936;11.344;2022-08-14T02:24:50;15.65;;;13.65;;
25854;SDS011;13680;49.936;11.344;2022-08-14T02:27:16;14.45;;;12.98;;
25854;SDS011;13680;49.936;11.344;2022-08-14T02:29:42;15.50;;;13.38;;
25854;SDS011;13680;49.936;11.344;2022-08-14T02:32:08;17.67;;;13.68;;
25854;SDS011;13680;49.936;11.344;2022-08-14T02:34:35;15.45;;;13.35;;
25854;SDS011;13680;49.936;11.344;2022-08-14T02:37:07;16.10;;;13.63;;
25854;SDS011;13680;49.936;11.344;2022-08-14T02:39:38;14.93;;;13.15;;
25854;SDS011;13680;49.936;11.344;2022-08-14T02:42:07;17.00;;;14.40;;
25854;SDS011;13680;49.936;11.344;2022-08-14T02:44:33;15.13;;;13.57;;
25854;SDS011;13680;49.936;11.344;2022-08-14T02:46:59;16.83;;;14.13;;
25854;SDS011;13680;49.936;11.344;2022-08-14T02:49:24;15.88;;;13.90;;
25854;SDS011;13680;49.936;11.344;2022-08-14T02:51:56;13.57;;;12.18;;
25854;SDS011;13680;49.936;11.344;2022-08-14T02:54:23;15.90;;;13.40;;
25854;SDS011;13680;49.936;11.344;2022-08-14T02:56:50;16.70;;;13.20;;
25854;SDS011;13680;49.936;11.344;2022-08-14T02:59:18;15.55;;;13.75;;
25854;SDS011;13680;49.936;11.344;2022-08-14T03:01:44;17.10;;;13.18;;
25854;SDS011;13680;49.936;11.344;2022-08-14T03:04:10;20.92;;;13.27;;
25854;SDS011;13680;49.936;11.344;2022-08-14T03:06:36;14.40;;;12.90;;
25854;SDS011;13680;49.936;11.344;2022-08-14T03:09:03;16.85;;;13.63;;
25854;SDS011;13680;49.936;11.344;2022-08-14T03:11:29;16.70;;;13.68;;
25854;SDS011;13680;49.936;11.344;2022-08-14T03:13:55;14.63;;;12.98;;
25854;SDS011;13680;49.936;11.344;2022-08-14T03:16:23;16.30;;;13.77;;
25854;SDS011;13680;49.936;11.344;2022-08-14T03:18:51;18.67;;;13.93;;
25854;SDS011;13680;49.936;11.344;2022-08-14T03:21:19;15.98;;;12.55;;
25854;SDS011;13680;49.936;11.344;2022-08-14T03:23:47;14.90;;;12.90;;
25854;SDS011;13680;49.936;11.344;2022-08-14T03:26:15;19.02;;;13.85;;
25854;SDS011;13680;49.936;11.344;2022-08-14T03:28:43;19.38;;;13.95;;
25854;SDS011;13680;49.936;11.344;2022-08-14T03:31:11;18.25;;;14.60;;
25854;SDS011;13680;49.936;11.344;2022-08-14T03:33:37;15.07;;;13.35;;
25854;SDS011;13680;49.936;11.344;2022-08-14T03:36:09;17.70;;;14.25;;
25854;SDS011;13680;49.936;11.344;2022-08-14T03:38:38;17.08;;;13.38;;
25854;SDS011;13680;49.936;11.344;2022-08-14T03:41:07;16.85;;;13.48;;
25854;SDS011;13680;49.936;11.344;2022-08-14T03:43:38;15.02;;;13.00;;
25854;SDS011;13680;49.936;11.344;2022-08-14T03:46:04;16.17;;;12.95;;
25854;SDS011;13680;49.936;11.344;2022-08-14T03:48:30;16.10;;;13.90;;
25854;SDS011;13680;49.936;11.344;2022-08-14T03:50:56;20.38;;;14.30;;
25854;SDS011;13680;49.936;11.344;2022-08-14T03:53:21;16.98;;;13.73;;
25854;SDS011;13680;49.936;11.344;2022-08-14T03:55:46;18.27;;;12.60;;
25854;SDS011;13680;49.936;11.344;2022-08-14T03:58:12;16.02;;;13.77;;
25854;SDS011;13680;49.936;11.344;2022-08-14T04:00:38;15.35;;;13.75;;
25854;SDS011;13680;49.936;11.344;2022-08-14T04:03:07;16.55;;;14.27;;
25854;SDS011;13680;49.936;11.344;2022-08-14T04:05:34;16.80;;;14.05;;
25854;SDS011;13680;49.936;11.344;2022-08-14T04:08:03;16.70;;;13.85;;
25854;SDS011;13680;49.936;11.344;2022-08-14T04:10:30;15.45;;;13.85;;
25854;SDS011;13680;49.936;11.344;2022-08-14T04:12:55;18.95;;;13.98;;
25854;SDS011;13680;49.936;11.344;2022-08-14T04:15:24;16.90;;;13.38;;
25854;SDS011;13680;49.936;11.344;2022-08-14T04:17:50;16.85;;;13.80;;
25854;SDS011;13680;49.936;11.344;2022-08-14T04:20:16;15.35;;;13.32;;
25854;SDS011;13680;49.936;11.344;2022-08-14T04:22:41;15.20;;;13.60;;
25854;SDS011;13680;49.936;11.344;2022-08-14T04:25:08;18.13;;;13.65;;
25854;SDS011;13680;49.936;11.344;2022-08-14T04:27:34;17.60;;;13.57;;
25854;SDS011;13680;49.936;11.344;2022-08-14T04:30:00;16.90;;;14.00;;
25854;SDS011;13680;49.936;11.344;2022-08-14T04:32:28;16.30;;;13.98;;
25854;SDS011;13680;49.936;11.344;2022-08-14T04:34:53;17.73;;;14.13;;
25854;SDS011;13680;49.936;11.344;2022-08-14T04:37:20;15.18;;;12.98;;
25854;SDS011;13680;49.936;11.344;2022-08-14T04:42:49;15.65;;;13.32;;
25854;SDS011;13680;49.936;11.344;2022-08-14T04:45:33;20.00;;;13.80;;
25854;SDS011;13680;49.936;11.344;2022-08-14T04:48:14;19.40;;;14.40;;
25854;SDS011;13680;49.936;11.344;2022-08-14T04:50:50;15.73;;;13.93;;
25854;SDS011;13680;49.936;11.344;2022-08-14T04:53:16;18.08;;;14.52;;
25854;SDS011;13680;49.936;11.344;2022-08-14T04:55:44;16.38;;;13.35;;
25854;SDS011;13680;49.936;11.344;2022-08-14T04:58:19;16.95;;;14.18;;
25854;SDS011;13680;49.936;11.344;2022-08-14T05:00:46;16.15;;;13.45;;
25854;SDS011;13680;49.936;11.344;2022-08-14T05:03:19;16.98;;;12.60;;
25854;SDS011;13680;49.936;11.344;2022-08-14T05:05:46;17.13;;;13.35;;
25854;SDS011;13680;49.936;11.344;2022-08-14T05:08:16;15.57;;;13.60;;
25854;SDS011;13680;49.936;11.344;2022-08-14T05:10:47;16.77;;;13.55;;
25854;SDS011;13680;49.936;11.344;2022-08-14T05:13:18;14.15;;;12.65;;
25854;SDS011;13680;49.936;11.344;2022-08-14T05:15:44;16.52;;;13.63;;
25854;SDS011;13680;49.936;11.344;2022-08-14T05:18:12;15.23;;;13.63;;
25854;SDS011;13680;49.936;11.344;2022-08-14T05:20:39;16.13;;;13.13;;
25854;SDS011;13680;49.936;11.344;2022-08-14T05:23:08;16.13;;;12.73;;
25854;SDS011;13680;49.936;11.344;2022-08-14T05:25:34;15.77;;;12.80;;
25854;SDS011;13680;49.936;11.344;2022-08-14T05:28:06;14.43;;;12.27;;
25854;SDS011;13680;49.936;11.344;2022-08-14T05:30:43;25.48;;;12.80;;
25854;SDS011;13680;49.936;11.344;2022-08-14T05:33:12;12.35;;;10.73;;
25854;SDS011;13680;49.936;11.344;2022-08-14T05:35:39;15.07;;;11.68;;
25854;SDS011;13680;49.936;11.344;2022-08-14T05:38:08;14.63;;;11.23;;
25854;SDS011;13680;49.936;11.344;2022-08-14T05:40:38;13.02;;;11.63;;
25854;SDS011;13680;49.936;11.344;2022-08-14T05:43:04;16.10;;;11.38;;
25854;SDS011;13680;49.936;11.344;2022-08-14T05:45:30;14.45;;;11.52;;
25854;SDS011;13680;49.936;11.344;2022-08-14T05:47:55;12.43;;;10.88;;
25854;SDS011;13680;49.936;11.344;2022-08-14T05:50:21;15.25;;;11.30;;
25854;SDS011;13680;49.936;11.344;2022-08-14T05:52:47;12.85;;;11.55;;
25854;SDS011;13680;49.936;11.344;2022-08-14T05:55:14;14.02;;;10.68;;
25854;SDS011;13680;49.936;11.344;2022-08-14T06:00:13;14.15;;;11.55;;
25854;SDS011;13680;49.936;11.344;2022-08-14T06:02:39;15.13;;;10.90;;
25854;SDS011;13680;49.936;11.344;2022-08-14T06:05:04;11.85;;;10.50;;
25854;SDS011;13680;49.936;11.344;2022-08-14T06:07:30;12.00;;;10.35;;
25854;SDS011;13680;49.936;11.344;2022-08-14T06:09:55;17.88;;;11.02;;
25854;SDS011;13680;49.936;11.344;2022-08-14T06:12:21;11.20;;;9.60;;
25854;SDS011;13680;49.936;11.344;2022-08-14T06:14:46;16.73;;;11.05;;
25854;SDS011;13680;49.936;11.344;2022-08-14T06:17:11;11.40;;;10.15;;
25854;SDS011;13680;49.936;11.344;2022-08-14T06:19:37;14.13;;;10.57;;
25854;SDS011;13680;49.936;11.344;2022-08-14T06:22:03;12.80;;;10.15;;
25854;SDS011;13680;49.936;11.344;2022-08-14T06:24:28;11.68;;;10.25;;
25854;SDS011;13680;49.936;11.344;2022-08-14T06:26:54;13.93;;;10.82;;
25854;SDS011;13680;49.936;11.344;2022-08-14T06:29:20;12.13;;;10.82;;
25854;SDS011;13680;49.936;11.344;2022-08-14T06:31:46;14.55;;;11.02;;
25854;SDS011;13680;49.936;11.344;2022-08-14T06:34:11;12.38;;;9.85;;
25854;SDS011;13680;49.936;11.344;2022-08-14T06:36:37;14.80;;;10.88;;
25854;SDS011;13680;49.936;11.344;2022-08-14T06:39:02;12.43;;;11.00;;
25854;SDS011;13680;49.936;11.344;2022-08-14T06:41:28;13.27;;;10.85;;
25854;SDS011;13680;49.936;11.344;2022-08-14T06:43:54;14.38;;;10.80;;
25854;SDS011;13680;49.936;11.344;2022-08-14T06:46:19;12.48;;;10.48;;
25854;SDS011;13680;49.936;11.344;2022-08-14T06:48:44;13.95;;;10.93;;
25854;SDS011;13680;49.936;11.344;2022-08-14T06:51:12;21.85;;;10.95;;
25854;SDS011;13680;49.936;11.344;2022-08-14T06:53:38;13.18;;;10.05;;
25854;SDS011;13680;49.936;11.344;2022-08-14T06:56:03;13.63;;;10.73;;
25854;SDS011;13680;49.936;11.344;2022-08-14T06:58:29;13.75;;;9.45;;
25854;SDS011;13680;49.936;11.344;2022-08-14T07:00:54;13.85;;;9.93;;
25854;SDS011;13680;49.936;11.344;2022-08-14T07:03:38;13.38;;;9.25;;
25854;SDS011;13680;49.936;11.344;2022-08-14T07:06:22;10.98;;;9.82;;
25854;SDS011;13680;49.936;11.344;2022-08-14T07:08:48;14.23;;;9.75;;
25854;SDS011;13680;49.936;11.344;2022-08-14T07:11:15;10.57;;;8.95;;
25854;SDS011;13680;49.936;11.344;2022-08-14T07:13:41;12.43;;;9.45;;
25854;SDS011;13680;49.936;11.344;2022-08-14T07:16:07;9.70;;;8.70;;
25854;SDS011;13680;49.936;11.344;2022-08-14T07:18:34;11.45;;;8.90;;
25854;SDS011;13680;49.936;11.344;2022-08-14T07:21:00;11.02;;;9.32;;
25854;SDS011;13680;49.936;11.344;2022-08-14T07:23:26;13.32;;;9.30;;
25854;SDS011;13680;49.936;11.344;2022-08-14T07:25:53;12.13;;;8.90;;
25854;SDS011;13680;49.936;11.344;2022-08-14T07:28:22;9.95;;;8.68;;
25854;SDS011;13680;49.936;11.344;2022-08-14T07:30:48;10.15;;;8.25;;
25854;SDS011;13680;49.936;11.344;2022-08-14T07:33:14;9.68;;;7.72;;
25854;SDS011;13680;49.936;11.344;2022-08-14T07:35:40;10.05;;;7.70;;
25854;SDS011;13680;49.936;11.344;2022-08-14T07:38:06;9.02;;;8.13;;
25854;SDS011;13680;49.936;11.344;2022-08-14T07:40:32;9.18;;;7.65;;
25854;SDS011;13680;49.936;11.344;2022-08-14T07:42:58;11.15;;;7.43;;
25854;SDS011;13680;49.936;11.344;2022-08-14T07:45:25;9.65;;;7.20;;
25854;SDS011;13680;49.936;11.344;2022-08-14T07:47:50;8.70;;;7.20;;
25854;SDS011;13680;49.936;11.344;2022-08-14T07:50:16;7.32;;;6.55;;
25854;SDS011;13680;49.936;11.344;2022-08-14T07:52:46;7.80;;;6.70;;
25854;SDS011;13680;49.936;11.344;2022-08-14T07:55:14;7.90;;;6.60;;
25854;SDS011;13680;49.936;11.344;2022-08-14T07:57:41;9.20;;;6.70;;
25854;SDS011;13680;49.936;11.344;2022-08-14T08:00:09;7.90;;;6.15;;
25854;SDS011;13680;49.936;11.344;2022-08-14T08:02:39;6.80;;;6.10;;
25854;SDS011;13680;49.936;11.344;2022-08-14T08:05:06;8.23;;;6.68;;
25854;SDS011;13680;49.936;11.344;2022-08-14T08:07:32;7.13;;;6.35;;
25854;SDS011;13680;49.936;11.344;2022-08-14T08:10:01;7.40;;;6.65;;
25854;SDS011;13680;49.936;11.344;2022-08-14T08:12:50;9.77;;;6.80;;
25854;SDS011;13680;49.936;11.344;2022-08-14T08:15:18;8.40;;;6.80;;
25854;SDS011;13680;49.936;11.344;2022-08-14T08:17:43;7.28;;;6.57;;
25854;SDS011;13680;49.936;11.344;2022-08-14T08:20:16;8.60;;;6.93;;
25854;SDS011;13680;49.936;11.344;2022-08-14T08:22:45;7.40;;;6.55;;
25854;SDS011;13680;49.936;11.344;2022-08-14T08:25:11;7.60;;;6.22;;
25854;SDS011;13680;49.936;11.344;2022-08-14T08:27:37;10.80;;;6.88;;
25854;SDS011;13680;49.936;11.344;2022-08-14T08:30:05;7.95;;;6.45;;
25854;SDS011;13680;49.936;11.344;2022-08-14T08:32:39;6.60;;;5.45;;
25854;SDS011;13680;49.936;11.344;2022-08-14T08:35:09;6.60;;;5.97;;
25854;SDS011;13680;49.936;11.344;2022-08-14T08:37:42;8.00;;;6.82;;
25854;SDS011;13680;49.936;11.344;2022-08-14T08:40:08;6.70;;;6.00;;
25854;SDS011;13680;49.936;11.344;2022-08-14T08:42:33;8.38;;;6.30;;
25854;SDS011;13680;49.936;11.344;2022-08-14T08:44:59;6.50;;;5.90;;
25854;SDS011;13680;49.936;11.344;2022-08-14T08:47:24;9.15;;;6.10;;
25854;SDS011;13680;49.936;11.344;2022-08-14T08:49:50;8.88;;;5.07;;
25854;SDS011;13680;49.936;11.344;2022-08-14T08:52:16;7.65;;;5.60;;
25854;SDS011;13680;49.936;11.344;2022-08-14T08:54:51;9.00;;;5.60;;
25854;SDS011;13680;49.936;11.344;2022-08-14T08:57:17;6.07;;;4.93;;
25854;SDS011;13680;49.936;11.344;2022-08-14T08:59:43;7.57;;;4.90;;
25854;SDS011;13680;49.936;11.344;2022-08-14T09:02:11;8.73;;;5.50;;
25854;SDS011;13680;49.936;11.344;2022-08-14T09:04:41;5.45;;;4.85;;
25854;SDS011;13680;49.936;11.344;2022-08-14T09:07:10;5.72;;;4.75;;
25854;SDS011;13680;49.936;11.344;2022-08-14T09:09:37;6.53;;;5.18;;
25854;SDS011;13680;49.936;11.344;2022-08-14T09:12:15;7.65;;;4.85;;
25854;SDS011;13680;49.936;11.344;2022-08-14T09:14:42;6.95;;;4.90;;
25854;SDS011;13680;49.936;11.344;2022-08-14T09:17:07;5.13;;;4.63;;
25854;SDS011;13680;49.936;11.344;2022-08-14T09:19:34;6.43;;;4.63;;
25854;SDS011;13680;49.936;11.344;2022-08-14T09:22:00;6.05;;;4.85;;
25854;SDS011;13680;49.936;11.344;2022-08-14T09:24:27;5.07;;;4.57;;
25854;SDS011;13680;49.936;11.344;2022-08-14T09:26:53;8.30;;;5.57;;
25854;SDS011;13680;49.936;11.344;2022-08-14T09:29:19;6.07;;;5.40;;
25854;SDS011;13680;49.936;11.344;2022-08-14T09:31:46;5.30;;;4.60;;
25854;SDS011;13680;49.936;11.344;2022-08-14T09:34:21;6.00;;;4.97;;
25854;SDS011;13680;49.936;11.344;2022-08-14T09:37:12;6.65;;;5.07;;
25854;SDS011;13680;49.936;11.344;2022-08-14T09:45:15;9.15;;;5.20;;
25854;SDS011;13680;49.936;11.344;2022-08-14T09:47:51;5.47;;;4.95;;
25854;SDS011;13680;49.936;11.344;2022-08-14T09:50:26;7.78;;;5.07;;
25854;SDS011;13680;49.936;11.344;2022-08-14T09:52:58;6.00;;;5.05;;
25854;SDS011;13680;49.936;11.344;2022-08-14T09:55:29;7.22;;;4.38;;
25854;SDS011;13680;49.936;11.344;2022-08-14T10:00:43;9.57;;;5.55;;
25854;SDS011;13680;49.936;11.344;2022-08-14T10:03:27;8.20;;;4.95;;
25854;SDS011;13680;49.936;11.344;2022-08-14T10:06:10;7.82;;;5.32;;
25854;SDS011;13680;49.936;11.344;2022-08-14T10:09:23;6.72;;;4.95;;
25854;SDS011;13680;49.936;11.344;2022-08-14T10:11:30;7.70;;;5.05;;
25854;SDS011;13680;49.936;11.344;2022-08-14T10:14:14;6.82;;;5.20;;
25854;SDS011;13680;49.936;11.344;2022-08-14T10:16:46;7.00;;;4.88;;
25854;SDS011;13680;49.936;11.344;2022-08-14T10:19:15;5.80;;;5.03;;
25854;SDS011;13680;49.936;11.344;2022-08-14T10:21:43;5.90;;;4.80;;
25854;SDS011;13680;49.936;11.344;2022-08-14T10:24:24;5.97;;;5.03;;
25854;SDS011;13680;49.936;11.344;2022-08-14T10:26:52;5.70;;;4.70;;
25854;SDS011;13680;49.936;11.344;2022-08-14T10:29:37;5.63;;;5.07;;
25854;SDS011;13680;49.936;11.344;2022-08-14T10:32:05;5.60;;;5.00;;
25854;SDS011;13680;49.936;11.344;2022-08-14T10:34:33;6.03;;;5.00;;
25854;SDS011;13680;49.936;11.344;2022-08-14T10:37:04;7.15;;;4.68;;
25854;SDS011;13680;49.936;11.344;2022-08-14T10:39:31;5.18;;;4.60;;
25854;SDS011;13680;49.936;11.344;2022-08-14T10:42:01;7.00;;;5.30;;
25854;SDS011;13680;49.936;11.344;2022-08-14T10:44:33;6.63;;;4.75;;
25854;SDS011;13680;49.936;11.344;2022-08-14T10:47:02;4.85;;;4.40;;
25854;SDS011;13680;49.936;11.344;2022-08-14T10:49:33;7.68;;;5.30;;
25854;SDS011;13680;49.936;11.344;2022-08-14T10:52:07;9.48;;;4.90;;
25854;SDS011;13680;49.936;11.344;2022-08-14T10:54:44;5.55;;;5.05;;
25854;SDS011;13680;49.936;11.344;2022-08-14T10:57:16;7.03;;;4.72;;
25854;SDS011;13680;49.936;11.344;2022-08-14T10:59:49;5.53;;;4.93;;
25854;SDS011;13680;49.936;11.344;2022-08-14T11:02:32;7.53;;;4.90;;
25854;SDS011;13680;49.936;11.344;2022-08-14T11:10:21;7.63;;;4.90;;
25854;SDS011;13680;49.936;11.344;2022-08-14T11:12:51;6.03;;;4.70;;
25854;SDS011;13680;49.936;11.344;2022-08-14T11:15:22;5.28;;;4.72;;
25854;SDS011;13680;49.936;11.344;2022-08-14T11:17:49;5.18;;;4.68;;
25854;SDS011;13680;49.936;11.344;2022-08-14T11:20:16;5.18;;;4.68;;
25854;SDS011;13680;49.936;11.344;2022-08-14T11:22:44;5.82;;;4.88;;
25854;SDS011;13680;49.936;11.344;2022-08-14T11:25:12;6.47;;;5.20;;
25854;SDS011;13680;49.936;11.344;2022-08-14T11:27:40;7.05;;;5.05;;
25854;SDS011;13680;49.936;11.344;2022-08-14T11:30:08;9.73;;;4.97;;
25854;SDS011;13680;49.936;11.344;2022-08-14T11:32:35;6.53;;;4.97;;
25854;SDS011;13680;49.936;11.344;2022-08-14T11:35:04;7.25;;;5.40;;
25854;SDS011;13680;49.936;11.344;2022-08-14T11:37:30;5.78;;;5.05;;
25854;SDS011;13680;49.936;11.344;2022-08-14T11:40:01;5.47;;;4.40;;
25854;SDS011;13680;49.936;11.344;2022-08-14T11:42:28;7.22;;;4.93;;
25854;SDS011;13680;49.936;11.344;2022-08-14T11:44:59;6.32;;;5.07;;
25854;SDS011;13680;49.936;11.344;2022-08-14T11:47:31;6.10;;;4.97;;
25854;SDS011;13680;49.936;11.344;2022-08-14T11:49:57;6.82;;;5.07;;
25854;SDS011;13680;49.936;11.344;2022-08-14T11:52:31;5.47;;;4.50;;
25854;SDS011;13680;49.936;11.344;2022-08-14T11:57:24;6.75;;;5.00;;
25854;SDS011;13680;49.936;11.344;2022-08-14T11:59:59;8.88;;;5.18;;
25854;SDS011;13680;49.936;11.344;2022-08-14T12:02:25;6.82;;;4.70;;
25854;SDS011;13680;49.936;11.344;2022-08-14T12:04:51;9.18;;;5.20;;
25854;SDS011;13680;49.936;11.344;2022-08-14T12:07:17;7.40;;;5.03;;
25854;SDS011;13680;49.936;11.344;2022-08-14T12:09:44;8.35;;;5.70;;
25854;SDS011;13680;49.936;11.344;2022-08-14T12:12:15;6.03;;;5.10;;
25854;SDS011;13680;49.936;11.344;2022-08-14T12:17:28;9.45;;;5.28;;
25854;SDS011;13680;49.936;11.344;2022-08-14T12:19:58;5.35;;;4.88;;
25854;SDS011;13680;49.936;11.344;2022-08-14T12:22:32;5.90;;;5.30;;
25854;SDS011;13680;49.936;11.344;2022-08-14T12:25:03;6.38;;;4.75;;
25854;SDS011;13680;49.936;11.344;2022-08-14T12:27:35;8.00;;;5.20;;
25854;SDS011;13680;49.936;11.344;2022-08-14T12:30:06;5.72;;;5.07;;
25854;SDS011;13680;49.936;11.344;2022-08-14T12:32:40;5.65;;;5.10;;
25854;SDS011;13680;49.936;11.344;2022-08-14T12:35:11;10.15;;;5.35;;
25854;SDS011;13680;49.936;11.344;2022-08-14T12:37:37;5.75;;;4.82;;
25854;SDS011;13680;49.936;11.344;2022-08-14T12:40:12;5.25;;;4.75;;
25854;SDS011;13680;49.936;11.344;2022-08-14T12:42:39;8.15;;;5.25;;
25854;SDS011;13680;49.936;11.344;2022-08-14T12:45:05;6.57;;;5.07;;
25854;SDS011;13680;49.936;11.344;2022-08-14T12:47:31;7.93;;;5.47;;
25854;SDS011;13680;49.936;11.344;2022-08-14T12:49:57;8.57;;;5.22;;
25854;SDS011;13680;49.936;11.344;2022-08-14T12:52:29;6.40;;;5.57;;
25854;SDS011;13680;49.936;11.344;2022-08-14T12:54:57;7.25;;;5.40;;
25854;SDS011;13680;49.936;11.344;2022-08-14T12:57:31;13.10;;;5.65;;
25854;SDS011;13680;49.936;11.344;2022-08-14T13:00:05;6.38;;;4.97;;
25854;SDS011;13680;49.936;11.344;2022-08-14T13:02:34;7.88;;;4.80;;
25854;SDS011;13680;49.936;11.344;2022-08-14T13:05:02;6.55;;;5.18;;
25854;SDS011;13680;49.936;11.344;2022-08-14T13:07:28;5.75;;;4.70;;
25854;SDS011;13680;49.936;11.344;2022-08-14T13:09:54;9.35;;;5.35;;
25854;SDS011;13680;49.936;11.344;2022-08-14T13:12:20;7.00;;;4.97;;
25854;SDS011;13680;49.936;11.344;2022-08-14T13:14:57;5.20;;;4.70;;
25854;SDS011;13680;49.936;11.344;2022-08-14T13:17:26;8.77;;;4.22;;
25854;SDS011;13680;49.936;11.344;2022-08-14T13:19:53;6.90;;;4.82;;
25854;SDS011;13680;49.936;11.344;2022-08-14T13:22:24;8.13;;;4.45;;
25854;SDS011;13680;49.936;11.344;2022-08-14T13:24:53;4.78;;;4.25;;
25854;SDS011;13680;49.936;11.344;2022-08-14T13:27:23;6.03;;;4.63;;
25854;SDS011;13680;49.936;11.344;2022-08-14T13:29:49;6.10;;;4.47;;
25854;SDS011;13680;49.936;11.344;2022-08-14T13:32:17;6.07;;;4.55;;
25854;SDS011;13680;49.936;11.344;2022-08-14T13:34:43;6.00;;;4.60;;
25854;SDS011;13680;49.936;11.344;2022-08-14T13:37:15;4.75;;;4.20;;
25854;SDS011;13680;49.936;11.344;2022-08-14T13:39:46;5.15;;;4.00;;
25854;SDS011;13680;49.936;11.344;2022-08-14T13:42:13;4.18;;;3.70;;
25854;SDS011;13680;49.936;11.344;2022-08-14T13:44:43;11.07;;;4.35;;
25854;SDS011;13680;49.936;11.344;2022-08-14T13:47:12;7.10;;;4.72;;
25854;SDS011;13680;49.936;11.344;2022-08-14T13:49:38;8.57;;;4.78;;
25854;SDS011;13680;49.936;11.344;2022-08-14T13:52:05;5.90;;;4.45;;
25854;SDS011;13680;49.936;11.344;2022-08-14T13:54:35;6.22;;;4.20;;
25854;SDS011;13680;49.936;11.344;2022-08-14T13:57:03;6.70;;;4.63;;
25854;SDS011;13680;49.936;11.344;2022-08-14T13:59:29;6.20;;;3.83;;
25854;SDS011;13680;49.936;11.344;2022-08-14T14:02:03;7.03;;;4.30;;
25854;SDS011;13680;49.936;11.344;2022-08-14T14:04:30;7.20;;;4.60;;
25854;SDS011;13680;49.936;11.344;2022-08-14T14:06:58;5.78;;;3.95;;
25854;SDS011;13680;49.936;11.344;2022-08-14T14:09:27;5.10;;;4.28;;
25854;SDS011;13680;49.936;11.344;2022-08-14T14:11:58;5.13;;;4.63;;
25854;SDS011;13680;49.936;11.344;2022-08-14T14:14:24;6.85;;;4.72;;
25854;SDS011;13680;49.936;11.344;2022-08-14T14:16:50;5.78;;;4.70;;
25854;SDS011;13680;49.936;11.344;2022-08-14T14:19:19;8.00;;;4.47;;
25854;SDS011;13680;49.936;11.344;2022-08-14T14:21:48;5.53;;;4.28;;
25854;SDS011;13680;49.936;11.344;2022-08-14T14:24:14;5.43;;;4.22;;
25854;SDS011;13680;49.936;11.344;2022-08-14T14:26:42;7.18;;;4.60;;
25854;SDS011;13680;49.936;11.344;2022-08-14T14:29:09;5.00;;;4.50;;
25854;SDS011;13680;49.936;11.344;2022-08-14T14:31:38;5.68;;;5.03;;
25854;SDS011;13680;49.936;11.344;2022-08-14T14:34:04;5.15;;;4.30;;
25854;SDS011;13680;49.936;11.344;2022-08-14T14:36:32;6.45;;;4.00;;
25854;SDS011;13680;49.936;11.344;2022-08-14T14:38:59;5.20;;;4.20;;
25854;SDS011;13680;49.936;11.344;2022-08-14T14:41:29;5.55;;;4.20;;
25854;SDS011;13680;49.936;11.344;2022-08-14T14:43:57;4.72;;;4.05;;
25854;SDS011;13680;49.936;11.344;2022-08-14T14:46:24;5.70;;;4.68;;
25854;SDS011;13680;49.936;11.344;2022-08-14T14:48:56;5.25;;;4.20;;
25854;SDS011;13680;49.936;11.344;2022-08-14T14:51:26;6.10;;;4.25;;
25854;SDS011;13680;49.936;11.344;2022-08-14T14:53:52;4.68;;;3.88;;